Flight Track Log - Related Links

Times and Time Zones

All times are in EDT time to prevent confusion due to time zone crossing. See the UAL4849 flight status page for this flight to view local times or setup timezone preferences in your user account.

Time Position Orientation Groundspeed Altitude Reporting Facility
EDT Latitude Longitude Course Direction KTS MPH feet Rate Location/Type
Fri 11:03:13 AM 43.1056 -77.6883 199° South 130 150 1,000  Level Cleveland Center
Fri 11:03:43 AM 43.0850 -77.6978 199° South 138 159 1,800 1,385 Climbing Cleveland Center
Fri 11:04:44 AM 43.0731 -77.6386 105° East 192 221 3,100 1,377 Climbing Cleveland Center
Fri 11:05:45 AM 43.0733 -77.5733 90° East 203 234 4,600 1,537 Climbing Cleveland Center
Fri 11:06:45 AM 43.0736 -77.5050 90° East 191 220 6,200 1,400 Climbing Cleveland Center
Fri 11:07:45 AM 43.0614 -77.4347 103° East 191 220 7,400 1,200 Climbing Cleveland Center
Fri 11:08:45 AM 43.0222 -77.3742 131° Southeast 192 221 8,600 1,250 Climbing Cleveland Center
Fri 11:09:45 AM 42.9892 -77.3106 125° Southeast 198 228 9,900 1,250 Climbing Cleveland Center
Fri 11:10:45 AM 42.9536 -77.2386 124° Southeast 203 234 11,100 995 Climbing Cleveland Center
Fri 11:12:52 AM 42.8811 -77.0983 125° Southeast 220 253 13,000 610 Climbing New York Center
Fri 11:13:52 AM 42.8353 -77.0178 128° Southeast 244 281 13,000  Level New York Center
Fri 11:14:52 AM 42.7922 -76.9289 123° Southeast 271 312 13,000  Level New York Center
Fri 11:15:52 AM 42.7514 -76.8289 119° Southeast 288 331 13,000  Level New York Center
Fri 11:16:53 AM 42.7083 -76.7347 122° Southeast 300 345 13,000  Level New York Center
Fri 11:17:52 AM 42.6653 -76.6403 122° Southeast 300 345 13,000  Level New York Center
Fri 11:19:04 AM 42.6125 -76.5286 123° Southeast 301 346 13,000  Level Boston Center
Fri 11:20:16 AM 42.5622 -76.4153 121° Southeast 296 341 13,000  Level Boston Center
Fri 11:21:16 AM 42.5194 -76.3222 122° Southeast 296 341 13,000  Level Boston Center
Fri 11:22:16 AM 42.4811 -76.2269 119° Southeast 290 334 13,000 45 Level Boston Center
Fri 11:23:28 AM 42.4361 -76.1342 123° Southeast 290 334 13,100  Climbing Boston Center
Fri 11:24:28 AM 42.3836 -76.0214 122° Southeast 290 334 13,000  Descending Boston Center
Fri 11:25:28 AM 42.3406 -75.9233 121° Southeast 285 328 13,100 -50 Climbing Boston Center
Fri 11:26:28 AM 42.2997 -75.8314 121° Southeast 290 334 12,900 -50 Descending Boston Center
Fri 11:27:28 AM 42.2547 -75.7278 120° Southeast 285 328 13,000 100 Climbing Boston Center
Fri 11:28:28 AM 42.2117 -75.6358 122° Southeast 285 328 13,100 50 Climbing Boston Center
Fri 11:29:28 AM 42.1703 -75.5442 121° Southeast 285 328 13,100  Level Boston Center
Fri 11:30:28 AM 42.1250 -75.4494 123° Southeast 285 328 13,100 -50 Level Boston Center
Fri 11:31:28 AM 42.0814 -75.3578 123° Southeast 285 328 13,000  Descending Boston Center
Fri 11:32:28 AM 42.0439 -75.2750 121° Southeast 285 328 13,100  Climbing Boston Center
Fri 11:33:28 AM 42.0167 -75.1956 115° Southeast 285 328 13,000 -50 Descending Boston Center
Fri 11:34:28 AM 41.9697 -75.0678 116° Southeast 290 334 13,000  Level Boston Center
Fri 11:35:28 AM 41.9364 -74.9797 117° Southeast 290 334 13,000 -250 Level Boston Center
Fri 11:36:28 AM 41.9008 -74.8919 119° Southeast 290 334 12,500 -800 Descending Boston Center
Fri 11:37:28 AM 41.8553 -74.7814 119° Southeast 302 348 11,400 -1,000 Descending Boston Center
Fri 11:38:28 AM 41.8194 -74.6881 117° Southeast 302 348 10,500 -950 Descending Boston Center
Fri 11:39:28 AM 41.7819 -74.5839 116° Southeast 295 339 9,500 -1,100 Descending Boston Center
Fri 11:40:28 AM 41.7144 -74.5203 145° Southeast 267 307 8,300 -750 Descending Boston Center
Fri 11:41:28 AM 41.6514 -74.5461 197° South 246 283 8,000 -150 Descending Boston Center
Fri 11:42:28 AM 41.5717 -74.5656 190° South 260 299 8,000  Level Boston Center
Fri 11:43:28 AM 41.5069 -74.5744 186° South 260 299 8,000 -500 Level Boston Center
Fri 11:44:28 AM 41.4275 -74.5886 188° South 260 299 7,000 -984 Descending Boston Center
Fri 11:45:30 AM 41.3500 -74.6167 195° South 258 297 6,000 -492 Descending New York TRACON
Fri 11:46:30 AM 41.2833 -74.6167 180° South 247 284 6,000  Level New York TRACON
Fri 11:47:30 AM 41.2333 -74.5667 143° Southeast 253 291 6,000  Level New York TRACON
Fri 11:48:24 AM 41.1833 -74.5167 143° Southeast 251 289 6,000  Level New York TRACON
Fri 11:49:24 AM 41.1500 -74.4333 118° Southeast 239 275 6,000  Level New York TRACON
Fri 11:50:24 AM 41.1167 -74.3667 124° Southeast 242 278 6,000  Level New York TRACON
Fri 11:51:24 AM 41.0500 -74.4000 201° Southwest 236 272 6,000  Level New York TRACON
Fri 11:52:24 AM 41.0000 -74.4500 217° Southwest 237 273 6,000  Level New York TRACON
Fri 11:53:24 AM 40.9333 -74.5000 210° Southwest 240 276 6,000  Level New York TRACON
Fri 11:54:18 AM 40.8833 -74.5333 207° Southwest 241 277 6,000  Level New York TRACON
Fri 11:55:18 AM 40.8167 -74.5500 191° South 239 275 6,000  Level New York TRACON
Fri 11:56:18 AM 40.7667 -74.5500 180° South 236 272 6,000  Level New York TRACON
Fri 11:57:18 AM 40.7000 -74.5500 180° South 236 272 6,000  Level New York TRACON
Fri 11:58:24 AM 40.6167 -74.5333 171° South 237 273 6,000  Level New York TRACON
Fri 11:59:18 AM 40.5667 -74.5333 180° South 235 270 6,000 -150 Level New York TRACON
Fri 12:00:24 PM 40.5000 -74.5167 169° South 234 269 5,700 -450 Descending New York TRACON
Fri 12:01:18 PM 40.4333 -74.5167 180° South 241 277 5,100 -368 Descending New York TRACON
Fri 12:02:18 PM 40.3667 -74.5000 169° South 246 283 5,000 -500 Descending New York TRACON
Fri 12:03:18 PM 40.3500 -74.4333 108° East 240 276 4,100 -800 Descending New York TRACON
Fri 12:04:18 PM 40.3833 -74.3667 57° Northeast 216 249 3,400 -500 Descending New York TRACON
Fri 12:05:18 PM 40.4333 -74.3333 27° Northeast 209 241 3,100 -250 Descending New York TRACON
Fri 12:06:18 PM 40.5000 -74.3000 21° North 218 251 2,900 -95 Descending New York TRACON
Fri 12:07:24 PM 40.5500 -74.2500 37° Northeast 198 228 2,900 -381 Level New York TRACON
Fri 12:08:24 PM 40.6000 -74.2333 14° North 183 211 2,100 -900 Descending New York TRACON
Fri 12:09:24 PM 40.6333 -74.2000 37° Northeast 163 188 1,100 -1,000 Descending New York TRACON

Login

Don't have an account? Register now (free) for customized features, flight alerts, and more!